createdAt,value
2023-05-13T00:02:22.332Z,4.70
2023-05-13T00:04:51.417Z,5.40
2023-05-13T00:07:19.609Z,5.30
2023-05-13T00:09:47.788Z,6.00
2023-05-13T00:12:15.946Z,5.80
2023-05-13T00:14:44.044Z,5.80
2023-05-13T00:17:12.184Z,5.90
2023-05-13T00:19:40.343Z,6.10
2023-05-13T00:22:08.541Z,6.10
2023-05-13T00:24:36.703Z,6.00
2023-05-13T00:27:05.051Z,6.10
2023-05-13T00:29:33.303Z,6.90
2023-05-13T00:32:01.807Z,7.00
2023-05-13T00:34:30.861Z,7.70
2023-05-13T00:36:58.957Z,7.60
2023-05-13T00:39:27.422Z,6.40
2023-05-13T00:41:55.728Z,6.50
2023-05-13T00:44:23.930Z,6.60
2023-05-13T00:46:51.956Z,7.20
2023-05-13T00:49:20.159Z,7.20
2023-05-13T00:51:50.925Z,6.70
2023-05-13T00:54:19.107Z,5.60
2023-05-13T00:56:47.215Z,5.30
2023-05-13T00:59:15.405Z,6.30
2023-05-13T01:02:16.941Z,5.70
2023-05-13T01:04:58.200Z,5.80
2023-05-13T01:07:54.948Z,5.30
2023-05-13T01:11:01.691Z,5.10
2023-05-13T01:13:37.139Z,5.40
2023-05-13T01:16:12.216Z,6.40
2023-05-13T01:18:56.958Z,7.90
2023-05-13T01:21:27.056Z,7.30
2023-05-13T01:23:56.257Z,7.90
2023-05-13T01:26:26.921Z,8.80
2023-05-13T01:28:55.654Z,7.10
2023-05-13T01:31:24.584Z,7.20
2023-05-13T01:33:53.730Z,7.60
2023-05-13T01:36:22.815Z,7.10
2023-05-13T01:38:52.467Z,7.40
2023-05-13T01:41:21.271Z,7.50
2023-05-13T01:43:50.010Z,8.40
2023-05-13T01:46:18.911Z,8.20
2023-05-13T01:48:49.378Z,7.80
2023-05-13T01:51:17.747Z,8.20
2023-05-13T01:53:45.985Z,7.60
2023-05-13T01:56:14.153Z,7.20
2023-05-13T01:58:42.536Z,6.80
2023-05-13T02:01:11.298Z,7.70
2023-05-13T02:03:39.679Z,7.00
2023-05-13T02:06:08.032Z,7.30
2023-05-13T02:08:36.313Z,8.30
2023-05-13T02:11:05.096Z,7.60
2023-05-13T02:13:33.254Z,8.50
2023-05-13T02:16:01.440Z,7.30
2023-05-13T02:18:29.667Z,6.90
2023-05-13T02:20:57.827Z,7.00
2023-05-13T02:23:25.995Z,6.10
2023-05-13T02:25:54.287Z,6.90
2023-05-13T02:28:22.394Z,7.30
2023-05-13T02:30:50.478Z,7.20
2023-05-13T02:33:18.758Z,7.10
2023-05-13T02:35:47.047Z,7.50
2023-05-13T02:38:15.265Z,7.90
2023-05-13T02:40:44.523Z,7.90
2023-05-13T02:43:12.848Z,8.60
2023-05-13T02:45:49.016Z,7.80
2023-05-13T02:48:17.589Z,8.30
2023-05-13T02:50:46.146Z,7.60
2023-05-13T02:53:14.456Z,7.50
2023-05-13T02:55:46.688Z,8.20
2023-05-13T02:58:14.973Z,8.30
2023-05-13T03:00:43.700Z,7.10
2023-05-13T03:03:11.876Z,7.00
2023-05-13T03:05:40.152Z,7.50
2023-05-13T03:08:08.419Z,7.80
2023-05-13T03:10:36.546Z,7.60
2023-05-13T03:13:04.843Z,7.40
2023-05-13T03:15:33.052Z,7.60
2023-05-13T03:18:01.809Z,7.30
2023-05-13T03:20:31.766Z,7.50
2023-05-13T03:23:01.073Z,6.10
2023-05-13T03:25:29.218Z,7.00
2023-05-13T03:27:59.087Z,5.80
2023-05-13T03:30:29.755Z,5.80
2023-05-13T03:33:03.472Z,6.40
2023-05-13T03:35:32.103Z,6.70
2023-05-13T03:38:00.601Z,7.00
2023-05-13T03:40:28.977Z,7.10
2023-05-13T03:42:57.366Z,6.60
2023-05-13T03:45:26.222Z,5.60
2023-05-13T03:47:58.412Z,7.10
2023-05-13T03:50:26.829Z,6.30
2023-05-13T03:52:56.685Z,6.30
2023-05-13T03:55:25.018Z,6.70
2023-05-13T03:57:53.379Z,5.70
2023-05-13T04:00:22.340Z,5.40
2023-05-13T04:02:51.099Z,5.70
2023-05-13T04:05:19.625Z,7.10
2023-05-13T04:07:47.823Z,6.40
2023-05-13T04:10:16.152Z,7.00
2023-05-13T04:12:44.582Z,6.90
2023-05-13T04:15:12.794Z,6.70
2023-05-13T04:17:41.974Z,7.00
2023-05-13T04:20:10.581Z,7.00
2023-05-13T04:22:38.672Z,5.50
2023-05-13T04:25:07.142Z,6.60
2023-05-13T04:27:35.988Z,6.80
2023-05-13T04:30:16.353Z,6.80
2023-05-13T04:32:45.450Z,7.60
2023-05-13T04:35:14.333Z,7.10
2023-05-13T04:37:47.644Z,8.30
2023-05-13T04:40:18.116Z,9.20
2023-05-13T04:42:55.019Z,8.60
2023-05-13T04:45:32.191Z,8.30
2023-05-13T04:48:01.654Z,8.90
2023-05-13T04:50:30.126Z,8.00
2023-05-13T04:52:58.859Z,9.10
2023-05-13T04:55:27.834Z,9.40
2023-05-13T04:57:57.799Z,10.00
2023-05-13T05:00:26.153Z,9.60
2023-05-13T05:02:54.469Z,9.60
2023-05-13T05:05:23.818Z,9.20
2023-05-13T05:07:52.599Z,7.80
2023-05-13T05:10:23.010Z,8.50
2023-05-13T05:12:58.602Z,8.10
2023-05-13T05:15:26.913Z,7.20
2023-05-13T05:17:57.630Z,7.50
2023-05-13T05:20:33.936Z,8.10
2023-05-13T05:23:04.193Z,8.60
2023-05-13T05:25:42.516Z,8.20
2023-05-13T05:28:11.087Z,8.20
2023-05-13T05:30:49.511Z,8.50
2023-05-13T05:33:23.417Z,9.80
2023-05-13T05:35:52.388Z,11.50
2023-05-13T05:38:25.599Z,9.20
2023-05-13T05:41:12.160Z,9.20
2023-05-13T05:43:40.267Z,8.50
2023-05-13T05:46:11.729Z,8.90
2023-05-13T05:48:40.107Z,8.50
2023-05-13T05:51:08.685Z,7.40
2023-05-13T05:53:41.385Z,8.30
2023-05-13T05:56:21.489Z,8.10
2023-05-13T05:58:49.807Z,8.90
2023-05-13T06:01:22.004Z,7.50
2023-05-13T06:03:53.024Z,8.40
2023-05-13T06:06:23.904Z,8.60
2023-05-13T06:08:52.215Z,8.10
2023-05-13T06:11:28.303Z,8.20
2023-05-13T06:13:57.720Z,8.00
2023-05-13T06:16:27.841Z,7.40
2023-05-13T06:18:56.294Z,7.90
2023-05-13T06:21:25.051Z,8.00
2023-05-13T06:23:53.237Z,8.00
2023-05-13T06:26:25.148Z,7.80
2023-05-13T06:28:53.244Z,7.70
2023-05-13T06:31:21.998Z,7.30
2023-05-13T06:33:50.212Z,7.10
2023-05-13T06:36:18.934Z,6.80
2023-05-13T06:38:47.505Z,6.50
2023-05-13T06:41:15.838Z,5.90
2023-05-13T06:43:46.271Z,5.30
2023-05-13T06:46:21.851Z,5.00
2023-05-13T06:48:52.610Z,5.90
2023-05-13T06:51:21.442Z,5.60
2023-05-13T06:53:49.517Z,6.70
2023-05-13T06:56:26.046Z,6.20
2023-05-13T06:58:54.182Z,6.30
2023-05-13T07:01:24.288Z,5.90
2023-05-13T07:03:52.479Z,6.10
2023-05-13T07:06:20.799Z,5.30
2023-05-13T07:08:48.931Z,5.80
2023-05-13T07:11:17.617Z,6.10
2023-05-13T07:13:46.776Z,5.90
2023-05-13T07:16:22.981Z,5.20
2023-05-13T07:18:51.386Z,5.60
2023-05-13T07:21:47.300Z,5.80
2023-05-13T07:24:15.591Z,4.40
2023-05-13T07:26:43.802Z,5.10
2023-05-13T07:29:11.969Z,5.20
2023-05-13T07:31:40.310Z,4.40
2023-05-13T07:34:08.404Z,4.20
2023-05-13T07:36:37.064Z,3.20
2023-05-13T07:39:05.209Z,4.00
2023-05-13T07:41:34.012Z,4.10
2023-05-13T07:44:02.150Z,3.70
2023-05-13T07:46:30.907Z,3.60
2023-05-13T07:48:59.006Z,3.50
2023-05-13T07:51:27.096Z,4.00
2023-05-13T07:53:55.292Z,3.50
2023-05-13T07:56:23.478Z,3.50
2023-05-13T07:58:51.679Z,3.90
2023-05-13T08:01:20.195Z,3.60
2023-05-13T08:03:48.497Z,3.20
2023-05-13T08:06:25.141Z,4.50
2023-05-13T08:08:53.287Z,36.70
2023-05-13T08:11:22.041Z,9.60
2023-05-13T08:13:50.123Z,4.10
2023-05-13T08:16:18.832Z,4.70
2023-05-13T08:18:47.022Z,4.00
2023-05-13T08:21:15.731Z,2.80
2023-05-13T08:23:46.000Z,3.10
2023-05-13T08:26:15.276Z,2.90
2023-05-13T08:28:43.439Z,3.40
2023-05-13T08:31:12.909Z,6.30
2023-05-13T08:33:42.929Z,3.50
2023-05-13T08:36:11.547Z,3.40
2023-05-13T08:38:40.104Z,3.30
2023-05-13T08:41:09.001Z,3.20
2023-05-13T08:43:39.466Z,3.20
2023-05-13T08:46:11.330Z,3.00
2023-05-13T08:48:41.569Z,3.20
2023-05-13T08:51:10.123Z,3.40
2023-05-13T08:53:44.609Z,3.10
2023-05-13T08:56:22.645Z,2.80
2023-05-13T08:58:51.171Z,3.00
2023-05-13T09:01:19.513Z,3.30
2023-05-13T09:04:04.629Z,2.20
2023-05-13T09:06:33.966Z,3.10
2023-05-13T09:09:03.334Z,2.90
2023-05-13T09:11:35.567Z,2.70
2023-05-13T09:14:08.509Z,3.20
2023-05-13T09:16:36.851Z,3.50
2023-05-13T09:19:07.104Z,3.00
2023-05-13T09:21:36.432Z,2.90
2023-05-13T09:24:10.362Z,1.70
2023-05-13T09:26:42.324Z,1.60
2023-05-13T09:29:22.708Z,1.60
2023-05-13T09:32:10.791Z,1.50
2023-05-13T09:34:39.786Z,2.30
2023-05-13T09:37:44.406Z,1.80
2023-05-13T09:40:17.550Z,3.10
2023-05-13T09:42:47.331Z,3.20
2023-05-13T09:45:17.124Z,2.60
2023-05-13T09:48:05.491Z,3.10
2023-05-13T09:50:33.635Z,1.30
2023-05-13T09:53:34.946Z,1.30
2023-05-13T09:56:22.371Z,1.20
2023-05-13T09:58:53.597Z,1.70
2023-05-13T10:01:22.753Z,1.50
2023-05-13T10:03:51.657Z,1.30
2023-05-13T10:06:23.925Z,1.40
2023-05-13T10:08:52.914Z,1.30
2023-05-13T10:11:23.674Z,1.70
2023-05-13T10:13:59.085Z,1.70
2023-05-13T10:16:29.541Z,1.60
2023-05-13T10:18:59.244Z,1.50
2023-05-13T10:21:27.721Z,1.30
2023-05-13T10:23:56.875Z,1.20
2023-05-13T10:26:26.364Z,1.20
2023-05-13T10:28:56.726Z,1.30
2023-05-13T10:31:29.916Z,1.40
2023-05-13T10:33:59.062Z,0.90
2023-05-13T10:37:13.699Z,1.50
2023-05-13T10:40:20.101Z,1.20
2023-05-13T10:43:11.468Z,1.20
2023-05-13T10:45:39.767Z,1.30
2023-05-13T10:48:11.664Z,1.40
2023-05-13T10:50:40.044Z,1.00
2023-05-13T10:53:21.496Z,1.20
2023-05-13T10:55:54.553Z,1.60
2023-05-13T10:58:43.007Z,1.30
2023-05-13T11:01:44.237Z,1.10
2023-05-13T11:04:18.637Z,0.90
2023-05-13T11:06:48.899Z,1.60
2023-05-13T11:09:23.157Z,1.20
2023-05-13T11:11:55.985Z,1.20
2023-05-13T11:14:26.291Z,1.30
2023-05-13T11:17:19.050Z,1.30
2023-05-13T11:19:50.110Z,1.70
2023-05-13T11:22:24.396Z,1.60
2023-05-13T11:25:27.221Z,0.90
2023-05-13T11:27:55.733Z,1.60
2023-05-13T11:30:27.343Z,1.70
2023-05-13T11:33:17.114Z,2.30
2023-05-13T11:35:55.541Z,2.00
2023-05-13T11:38:34.114Z,1.70
2023-05-13T11:41:03.247Z,1.60
2023-05-13T11:43:36.195Z,2.00
2023-05-13T11:46:05.217Z,1.70
2023-05-13T11:48:35.767Z,1.90
2023-05-13T11:51:04.062Z,2.10
2023-05-13T11:53:32.232Z,1.60
2023-05-13T11:56:26.833Z,1.20
2023-05-13T11:58:56.003Z,1.90
2023-05-13T12:01:25.810Z,1.40
2023-05-13T12:04:02.109Z,1.60
2023-05-13T12:06:35.107Z,1.50
2023-05-13T12:09:07.595Z,2.00
2023-05-13T12:12:03.939Z,1.70
2023-05-13T12:14:33.441Z,1.80
2023-05-13T12:17:02.395Z,4.00
2023-05-13T12:19:30.948Z,1.50
2023-05-13T12:22:08.199Z,2.10
2023-05-13T12:24:36.449Z,1.90
2023-05-13T12:27:07.160Z,1.30
2023-05-13T12:29:43.274Z,1.60
2023-05-13T12:32:12.210Z,1.60
2023-05-13T12:34:40.376Z,1.60
2023-05-13T12:37:13.119Z,1.70
2023-05-13T12:39:42.914Z,1.50
2023-05-13T12:42:40.034Z,1.60
2023-05-13T12:45:08.505Z,2.90
2023-05-13T12:47:50.730Z,3.00
2023-05-13T12:50:19.802Z,1.60
2023-05-13T12:52:52.352Z,1.80
2023-05-13T12:55:21.072Z,2.10
2023-05-13T12:58:04.017Z,1.50
2023-05-13T13:00:32.446Z,1.50
2023-05-13T13:03:00.910Z,2.60
2023-05-13T13:05:29.286Z,2.00
2023-05-13T13:08:05.551Z,1.70
2023-05-13T13:10:33.757Z,2.60
2023-05-13T13:13:02.573Z,6.20
2023-05-13T13:15:30.945Z,3.70
2023-05-13T13:18:01.108Z,6.40
2023-05-13T13:20:29.342Z,4.00
2023-05-13T13:23:05.177Z,4.30
2023-05-13T13:25:33.353Z,2.60
2023-05-13T13:28:01.794Z,2.10
2023-05-13T13:30:30.955Z,3.00
2023-05-13T13:32:59.509Z,2.40
2023-05-13T13:35:27.710Z,2.40
2023-05-13T13:37:57.894Z,2.50
2023-05-13T13:40:26.052Z,3.70
2023-05-13T13:42:54.209Z,2.20
2023-05-13T13:45:24.312Z,3.20
2023-05-13T13:47:55.454Z,2.30
2023-05-13T13:50:23.953Z,2.10
2023-05-13T13:52:58.034Z,2.20
2023-05-13T13:55:26.994Z,1.80
2023-05-13T13:57:55.379Z,2.00
2023-05-13T14:00:23.727Z,2.00
2023-05-13T14:02:52.548Z,1.50
2023-05-13T14:05:21.143Z,1.80
2023-05-13T14:07:54.276Z,2.30
2023-05-13T14:10:22.777Z,2.10
2023-05-13T14:12:52.255Z,2.20
2023-05-13T14:15:20.422Z,1.70
2023-05-13T14:17:49.275Z,1.60
2023-05-13T14:20:17.630Z,2.90
2023-05-13T14:22:46.136Z,3.50
2023-05-13T14:25:14.543Z,4.60
2023-05-13T14:27:44.711Z,5.20
2023-05-13T14:30:13.275Z,2.70
2023-05-13T14:32:45.467Z,1.80
2023-05-13T14:35:14.768Z,3.20
2023-05-13T14:37:45.446Z,2.00
2023-05-13T14:40:13.648Z,2.20
2023-05-13T14:42:41.808Z,2.00
2023-05-13T14:45:13.505Z,1.60
2023-05-13T14:47:45.583Z,1.70
2023-05-13T14:50:15.326Z,1.60
2023-05-13T14:52:59.707Z,1.90
2023-05-13T14:55:27.806Z,1.70
2023-05-13T14:57:55.944Z,1.80
2023-05-13T15:00:24.184Z,2.20
2023-05-13T15:03:12.864Z,37.20
2023-05-13T15:05:43.991Z,19.50
2023-05-13T15:08:12.679Z,15.50
2023-05-13T15:10:40.847Z,5.00
2023-05-13T15:13:11.358Z,5.20
2023-05-13T15:15:39.441Z,4.40
2023-05-13T15:18:09.532Z,3.90
2023-05-13T15:20:37.668Z,1.30
2023-05-13T15:23:07.740Z,1.20
2023-05-13T15:25:36.413Z,1.40
2023-05-13T15:28:09.131Z,1.60
2023-05-13T15:30:37.310Z,1.80
2023-05-13T15:33:05.537Z,1.50
2023-05-13T15:35:34.886Z,4.30
2023-05-13T15:38:05.698Z,2.30
2023-05-13T15:40:33.916Z,2.20
2023-05-13T15:43:04.134Z,2.60
2023-05-13T15:45:32.377Z,2.80
2023-05-13T15:48:04.749Z,2.80
2023-05-13T15:50:33.957Z,1.50
2023-05-13T15:53:06.312Z,1.90
2023-05-13T15:55:34.522Z,2.00
2023-05-13T15:58:02.731Z,2.10
2023-05-13T16:00:31.386Z,1.60
2023-05-13T16:02:59.800Z,1.40
2023-05-13T16:05:28.151Z,1.70
2023-05-13T16:07:57.424Z,1.50
2023-05-13T16:10:25.569Z,1.90
2023-05-13T16:13:02.832Z,1.60
2023-05-13T16:15:31.720Z,1.10
2023-05-13T16:17:59.968Z,1.60
2023-05-13T16:20:28.343Z,2.50
2023-05-13T16:22:56.566Z,2.40
2023-05-13T16:25:25.030Z,1.90
2023-05-13T16:27:53.690Z,1.70
2023-05-13T16:30:22.574Z,1.80
2023-05-13T16:32:53.579Z,2.90
2023-05-13T16:35:22.273Z,1.90
2023-05-13T16:37:51.098Z,2.30
2023-05-13T16:40:19.306Z,2.00
2023-05-13T16:42:47.652Z,2.40
2023-05-13T16:45:15.832Z,2.80
2023-05-13T16:47:44.603Z,2.60
2023-05-13T16:50:12.742Z,3.20
2023-05-13T16:52:41.475Z,2.60
2023-05-13T16:55:09.975Z,4.60
2023-05-13T16:57:38.232Z,3.20
2023-05-13T17:00:07.363Z,4.60
2023-05-13T17:02:35.659Z,5.10
2023-05-13T17:05:04.296Z,4.50
2023-05-13T17:07:32.602Z,3.60
2023-05-13T17:10:00.945Z,3.90
2023-05-13T17:12:29.690Z,4.00
2023-05-13T17:14:57.932Z,2.70
2023-05-13T17:17:26.122Z,2.70
2023-05-13T17:19:54.411Z,2.90
2023-05-13T17:22:22.567Z,12.60
2023-05-13T17:24:50.927Z,5.20
2023-05-13T17:27:19.180Z,2.80
2023-05-13T17:29:47.387Z,3.00
2023-05-13T17:32:15.496Z,3.50
2023-05-13T17:34:43.709Z,2.60
2023-05-13T17:37:11.875Z,2.60
2023-05-13T17:39:47.963Z,1.90
2023-05-13T17:42:16.152Z,1.90
2023-05-13T17:44:44.405Z,2.20
2023-05-13T17:47:12.561Z,2.20
2023-05-13T17:49:40.680Z,2.60
2023-05-13T17:52:09.963Z,2.50
2023-05-13T17:54:42.168Z,2.10
2023-05-13T17:57:11.286Z,2.80
2023-05-13T17:59:40.195Z,2.10
2023-05-13T18:02:08.575Z,7.70
2023-05-13T18:04:37.542Z,9.80
2023-05-13T18:07:05.917Z,8.30
2023-05-13T18:09:34.859Z,7.60
2023-05-13T18:12:03.539Z,7.60
2023-05-13T18:14:32.498Z,7.10
2023-05-13T18:17:00.859Z,7.20
2023-05-13T18:19:29.255Z,6.30
2023-05-13T18:21:57.411Z,6.00
2023-05-13T18:24:25.561Z,4.70
2023-05-13T18:26:53.660Z,3.80
2023-05-13T18:29:22.428Z,4.40
2023-05-13T18:31:50.730Z,4.90
2023-05-13T18:34:27.995Z,5.80
2023-05-13T18:36:56.279Z,8.20
2023-05-13T18:39:46.528Z,9.50
2023-05-13T18:42:14.902Z,8.50
2023-05-13T18:44:43.767Z,10.40
2023-05-13T18:47:12.111Z,10.40
2023-05-13T18:49:48.085Z,10.40
2023-05-13T18:52:16.273Z,12.80
2023-05-13T18:54:52.655Z,15.20
2023-05-13T18:57:21.013Z,16.10
2023-05-13T18:59:58.686Z,19.50
2023-05-13T19:02:27.340Z,17.60
2023-05-13T19:04:56.086Z,10.20
2023-05-13T19:07:24.288Z,10.20
2023-05-13T19:09:52.995Z,6.90
2023-05-13T19:12:21.052Z,8.60
2023-05-13T19:14:49.287Z,9.00
2023-05-13T19:17:17.540Z,7.50
2023-05-13T19:20:02.156Z,8.70
2023-05-13T19:22:30.297Z,7.60
2023-05-13T19:25:06.676Z,7.20
2023-05-13T19:27:36.083Z,6.60
2023-05-13T19:30:04.870Z,5.70
2023-05-13T19:32:33.130Z,5.70
2023-05-13T19:35:01.304Z,4.90
2023-05-13T19:37:30.530Z,4.90
2023-05-13T19:39:59.370Z,4.10
2023-05-13T19:42:27.546Z,4.70
2023-05-13T19:44:55.711Z,4.80
2023-05-13T19:47:26.979Z,4.20
2023-05-13T19:49:55.344Z,5.30
2023-05-13T19:52:23.508Z,4.70
2023-05-13T19:54:52.237Z,5.60
2023-05-13T19:57:21.514Z,6.30
2023-05-13T19:59:58.647Z,5.50
2023-05-13T20:02:27.066Z,5.10
2023-05-13T20:04:56.525Z,4.70
2023-05-13T20:07:24.662Z,4.30
2023-05-13T20:09:53.271Z,3.90
2023-05-13T20:12:21.759Z,3.70
2023-05-13T20:14:56.278Z,4.80
2023-05-13T20:17:25.890Z,6.00
2023-05-13T20:20:11.348Z,4.10
2023-05-13T20:22:39.544Z,4.40
2023-05-13T20:25:08.232Z,4.70
2023-05-13T20:27:36.444Z,3.60
2023-05-13T20:30:04.996Z,4.20
2023-05-13T20:32:33.128Z,3.90
2023-05-13T20:35:12.391Z,4.10
2023-05-13T20:37:40.575Z,3.70
2023-05-13T20:40:16.880Z,4.50
2023-05-13T20:42:45.079Z,5.90
2023-05-13T20:45:22.879Z,4.90
2023-05-13T20:47:51.330Z,6.80
2023-05-13T20:50:20.276Z,4.50
2023-05-13T20:52:48.433Z,4.80
2023-05-13T20:55:24.709Z,3.80
2023-05-13T20:57:52.914Z,4.30
2023-05-13T21:00:37.062Z,6.00
2023-05-13T21:03:05.494Z,4.60
2023-05-13T21:05:49.776Z,4.30
2023-05-13T21:08:17.979Z,3.80
2023-05-13T21:10:46.164Z,4.10
2023-05-13T21:13:14.287Z,3.80
2023-05-13T21:15:42.533Z,3.80
2023-05-13T21:18:10.788Z,3.60
2023-05-13T21:20:39.020Z,3.70
2023-05-13T21:23:07.169Z,3.90
2023-05-13T21:25:51.696Z,4.50
2023-05-13T21:28:19.806Z,5.20
2023-05-13T21:30:48.557Z,4.50
2023-05-13T21:33:16.996Z,5.70
2023-05-13T21:35:45.173Z,5.20
2023-05-13T21:38:13.329Z,5.60
2023-05-13T21:40:42.103Z,4.60
2023-05-13T21:43:11.063Z,5.00
2023-05-13T21:45:40.131Z,5.00
2023-05-13T21:48:08.531Z,5.00
2023-05-13T21:50:41.337Z,6.10
2023-05-13T21:53:09.472Z,5.70
2023-05-13T21:55:41.464Z,4.40
2023-05-13T21:58:09.632Z,4.60
2023-05-13T22:00:46.195Z,5.80
2023-05-13T22:03:14.332Z,4.60
2023-05-13T22:05:58.333Z,4.40
2023-05-13T22:08:26.490Z,4.60
2023-05-13T22:10:56.985Z,3.90
2023-05-13T22:13:25.931Z,4.30
2023-05-13T22:16:02.084Z,4.40
2023-05-13T22:18:30.438Z,5.20
2023-05-13T22:21:14.831Z,4.90
2023-05-13T22:23:42.934Z,5.00
2023-05-13T22:26:12.094Z,4.60
2023-05-13T22:28:40.671Z,4.80
2023-05-13T22:31:08.934Z,4.80
2023-05-13T22:33:37.064Z,5.50
2023-05-13T22:36:18.574Z,5.20
2023-05-13T22:38:46.833Z,5.10
2023-05-13T22:41:15.016Z,4.90
2023-05-13T22:43:43.285Z,5.50
2023-05-13T22:46:11.547Z,5.80
2023-05-13T22:48:39.716Z,5.20
2023-05-13T22:51:08.016Z,5.20
2023-05-13T22:53:36.124Z,5.10
2023-05-13T22:56:04.623Z,5.50
2023-05-13T22:58:32.937Z,5.90
2023-05-13T23:01:01.150Z,4.90
2023-05-13T23:03:29.320Z,4.30
2023-05-13T23:05:58.116Z,4.30
2023-05-13T23:08:26.362Z,5.40
2023-05-13T23:10:54.568Z,4.50
2023-05-13T23:13:22.734Z,5.00
2023-05-13T23:15:51.572Z,4.60
2023-05-13T23:18:19.675Z,4.20
2023-05-13T23:20:55.932Z,4.30
2023-05-13T23:23:24.244Z,4.10
2023-05-13T23:25:52.485Z,4.70
2023-05-13T23:28:20.769Z,4.30
2023-05-13T23:30:53.394Z,4.30
2023-05-13T23:33:21.511Z,3.80
2023-05-13T23:35:54.280Z,4.00
2023-05-13T23:38:23.136Z,4.40
2023-05-13T23:40:55.459Z,4.30
2023-05-13T23:43:23.881Z,5.40
2023-05-13T23:46:12.124Z,5.00
2023-05-13T23:48:40.547Z,4.60
2023-05-13T23:51:09.224Z,4.90
2023-05-13T23:53:37.341Z,5.20
2023-05-13T23:56:07.525Z,4.70
2023-05-13T23:58:35.705Z,4.10
